createdAt,value
2022-11-28T00:01:26.472Z,4.28
2022-11-28T00:03:53.136Z,4.65
2022-11-28T00:06:20.065Z,4.57
2022-11-28T00:08:46.983Z,4.53
2022-11-28T00:11:16.340Z,4.80
2022-11-28T00:13:46.116Z,4.30
2022-11-28T00:16:23.108Z,4.70
2022-11-28T00:18:51.329Z,4.22
2022-11-28T00:21:19.313Z,4.05
2022-11-28T00:23:47.530Z,4.68
2022-11-28T00:26:22.367Z,4.10
2022-11-28T00:28:50.272Z,3.88
2022-11-28T00:31:24.915Z,4.00
2022-11-28T00:33:52.203Z,3.90
2022-11-28T00:36:20.548Z,3.92
2022-11-28T00:38:50.428Z,3.78
2022-11-28T00:41:20.607Z,4.22
2022-11-28T00:43:50.944Z,3.58
2022-11-28T00:46:19.439Z,3.80
2022-11-28T00:48:48.758Z,3.75
2022-11-28T00:51:21.675Z,3.60
2022-11-28T00:53:49.789Z,3.70
2022-11-28T00:56:19.830Z,4.10
2022-11-28T00:58:49.823Z,3.47
2022-11-28T01:01:18.778Z,3.95
2022-11-28T01:03:46.075Z,3.35
2022-11-28T01:06:12.859Z,3.20
2022-11-28T01:08:39.626Z,3.50
2022-11-28T01:11:12.785Z,4.07
2022-11-28T01:13:40.726Z,3.85
2022-11-28T01:16:10.165Z,3.40
2022-11-28T01:18:38.068Z,3.60
2022-11-28T01:21:05.949Z,3.90
2022-11-28T01:23:32.992Z,3.80
2022-11-28T01:26:00.688Z,3.40
2022-11-28T01:28:27.204Z,3.45
2022-11-28T01:30:53.933Z,3.90
2022-11-28T01:33:20.492Z,3.63
2022-11-28T01:35:57.765Z,3.38
2022-11-28T01:38:26.040Z,3.33
2022-11-28T01:40:53.442Z,3.90
2022-11-28T01:43:20.670Z,3.38
2022-11-28T01:45:47.290Z,3.25
2022-11-28T01:48:22.158Z,3.58
2022-11-28T01:50:52.681Z,3.13
2022-11-28T01:53:20.688Z,3.33
2022-11-28T01:55:56.440Z,3.20
2022-11-28T01:58:23.290Z,2.90
2022-11-28T02:00:50.002Z,2.67
2022-11-28T02:03:33.477Z,3.13
2022-11-28T02:06:00.279Z,3.00
2022-11-28T02:08:31.839Z,3.00
2022-11-28T02:11:13.648Z,3.42
2022-11-28T02:14:10.990Z,3.70
2022-11-28T02:17:02.677Z,3.10
2022-11-28T02:19:53.413Z,2.92
2022-11-28T02:22:41.059Z,3.08
2022-11-28T02:25:33.634Z,3.08
2022-11-28T02:28:00.161Z,2.83
2022-11-28T02:30:53.117Z,3.17
2022-11-28T02:33:27.009Z,3.45
2022-11-28T02:36:12.075Z,3.00
2022-11-28T02:38:54.612Z,2.90
2022-11-28T02:41:52.762Z,3.42
2022-11-28T02:44:30.188Z,3.15
2022-11-28T02:47:02.546Z,3.67
2022-11-28T02:49:41.137Z,2.80
2022-11-28T02:52:16.948Z,2.83
2022-11-28T02:54:45.612Z,3.08
2022-11-28T02:57:12.202Z,2.88
2022-11-28T02:59:40.837Z,3.00
2022-11-28T03:02:33.884Z,3.00
2022-11-28T03:05:29.350Z,3.40
2022-11-28T03:08:08.493Z,3.25
2022-11-28T03:10:58.986Z,2.67
2022-11-28T03:14:17.935Z,3.03
2022-11-28T03:17:11.783Z,3.40
2022-11-28T03:19:42.948Z,2.67
2022-11-28T03:22:21.704Z,3.15
2022-11-28T03:25:02.541Z,2.88
2022-11-28T03:27:50.752Z,3.00
2022-11-28T03:30:24.977Z,2.92
2022-11-28T03:32:55.976Z,3.20
2022-11-28T03:35:26.485Z,3.50
2022-11-28T03:38:04.309Z,3.25
2022-11-28T03:40:42.180Z,2.78
2022-11-28T03:43:13.768Z,3.28
2022-11-28T03:45:46.825Z,2.92
2022-11-28T03:48:20.777Z,3.22
2022-11-28T03:51:06.307Z,3.20
2022-11-28T03:54:05.277Z,3.40
2022-11-28T03:56:54.716Z,3.40
2022-11-28T03:59:49.035Z,3.53
2022-11-28T04:02:25.295Z,3.28
2022-11-28T04:05:01.603Z,3.65
2022-11-28T04:07:42.845Z,3.25
2022-11-28T04:10:53.981Z,3.78
2022-11-28T04:13:30.308Z,3.28
2022-11-28T04:16:09.409Z,3.47
2022-11-28T04:18:56.195Z,3.30
2022-11-28T04:21:26.794Z,3.65
2022-11-28T04:23:57.193Z,3.90
2022-11-28T04:26:33.652Z,3.40
2022-11-28T04:29:04.327Z,4.50
2022-11-28T04:31:34.452Z,4.20
2022-11-28T04:34:05.627Z,3.72
2022-11-28T04:36:34.836Z,4.10
2022-11-28T04:39:06.419Z,3.97
2022-11-28T04:41:38.571Z,3.97
2022-11-28T04:44:25.588Z,3.42
2022-11-28T04:46:54.642Z,3.60
2022-11-28T04:49:21.723Z,3.72
2022-11-28T04:52:02.774Z,3.28
2022-11-28T04:54:42.746Z,3.92
2022-11-28T04:57:31.253Z,3.53
2022-11-28T05:00:01.526Z,3.70
2022-11-28T05:02:29.491Z,4.03
2022-11-28T05:04:58.459Z,3.80
2022-11-28T05:07:25.461Z,3.97
2022-11-28T05:09:52.054Z,3.30
2022-11-28T05:12:18.726Z,3.50
2022-11-28T05:14:45.406Z,3.50
2022-11-28T05:17:13.722Z,4.03
2022-11-28T05:19:42.704Z,3.90
2022-11-28T05:22:09.499Z,3.58
2022-11-28T05:24:36.178Z,3.47
2022-11-28T05:27:05.427Z,3.72
2022-11-28T05:29:32.000Z,3.45
2022-11-28T05:32:01.083Z,3.47
2022-11-28T05:34:31.202Z,4.05
2022-11-28T05:36:58.411Z,3.72
2022-11-28T05:39:25.888Z,3.47
2022-11-28T05:41:52.491Z,3.70
2022-11-28T05:44:22.776Z,3.58
2022-11-28T05:46:52.156Z,3.95
2022-11-28T05:49:21.594Z,3.35
2022-11-28T05:51:49.026Z,3.80
2022-11-28T05:54:15.717Z,3.65
2022-11-28T05:56:42.622Z,3.80
2022-11-28T05:59:09.384Z,3.53
2022-11-28T06:01:35.972Z,3.75
2022-11-28T06:04:02.575Z,3.83
2022-11-28T06:06:32.189Z,3.60
2022-11-28T06:08:59.229Z,3.55
2022-11-28T06:11:28.866Z,3.38
2022-11-28T06:13:55.381Z,3.20
2022-11-28T06:16:24.895Z,3.80
2022-11-28T06:18:57.046Z,3.60
2022-11-28T06:21:26.968Z,3.92
2022-11-28T06:23:53.978Z,3.60
2022-11-28T06:26:23.141Z,3.47
2022-11-28T06:28:50.327Z,3.33
2022-11-28T06:31:20.222Z,3.38
2022-11-28T06:33:47.200Z,3.33
2022-11-28T06:36:15.844Z,3.42
2022-11-28T06:38:42.784Z,4.20
2022-11-28T06:41:12.030Z,3.33
2022-11-28T06:43:39.003Z,3.55
2022-11-28T06:46:06.227Z,4.07
2022-11-28T06:48:35.089Z,3.50
2022-11-28T06:51:06.744Z,3.85
2022-11-28T06:53:34.801Z,3.58
2022-11-28T06:56:06.689Z,3.50
2022-11-28T06:58:33.613Z,3.70
2022-11-28T07:01:12.559Z,4.00
2022-11-28T07:03:39.717Z,3.85
2022-11-28T07:06:07.783Z,3.90
2022-11-28T07:08:35.246Z,3.47
2022-11-28T07:11:15.954Z,4.00
2022-11-28T07:13:43.705Z,3.67
2022-11-28T07:16:15.664Z,3.78
2022-11-28T07:18:42.681Z,4.25
2022-11-28T07:21:10.106Z,4.47
2022-11-28T07:23:37.256Z,3.92
2022-11-28T07:26:04.922Z,3.53
2022-11-28T07:28:31.907Z,4.05
2022-11-28T07:31:10.934Z,4.07
2022-11-28T07:33:38.971Z,3.67
2022-11-28T07:36:08.652Z,4.13
2022-11-28T07:38:35.284Z,3.83
2022-11-28T07:41:11.277Z,4.00
2022-11-28T07:43:38.653Z,3.80
2022-11-28T07:46:11.450Z,4.07
2022-11-28T07:48:40.894Z,4.75
2022-11-28T07:51:10.234Z,4.10
2022-11-28T07:53:37.871Z,3.85
2022-11-28T07:56:13.541Z,4.18
2022-11-28T07:58:40.127Z,4.70
2022-11-28T08:01:30.942Z,4.75
2022-11-28T08:03:58.041Z,4.90
2022-11-28T08:06:27.190Z,5.13
2022-11-28T08:08:55.022Z,4.90
2022-11-28T08:11:24.130Z,5.50
2022-11-28T08:13:53.860Z,5.80
2022-11-28T08:16:25.641Z,5.20
2022-11-28T08:18:53.056Z,5.28
2022-11-28T08:21:24.825Z,5.25
2022-11-28T08:23:53.473Z,5.82
2022-11-28T08:26:28.982Z,5.47
2022-11-28T08:28:57.462Z,5.82
2022-11-28T08:31:26.676Z,5.75
2022-11-28T08:33:58.342Z,6.20
2022-11-28T08:36:25.125Z,5.93
2022-11-28T08:39:03.920Z,6.40
2022-11-28T08:41:38.521Z,5.80
2022-11-28T08:44:05.183Z,6.30
2022-11-28T08:46:31.839Z,6.50
2022-11-28T08:48:59.175Z,6.93
2022-11-28T08:51:29.652Z,6.57
2022-11-28T08:54:04.156Z,7.28
2022-11-28T08:56:33.205Z,6.93
2022-11-28T08:59:00.323Z,7.10
2022-11-28T09:01:27.616Z,7.30
2022-11-28T09:03:55.675Z,7.82
2022-11-28T09:06:25.289Z,8.40
2022-11-28T09:08:54.149Z,7.53
2022-11-28T09:11:24.928Z,8.48
2022-11-28T09:13:54.038Z,8.30
2022-11-28T09:16:23.225Z,8.73
2022-11-28T09:18:49.780Z,8.73
2022-11-28T09:21:16.370Z,9.73
2022-11-28T09:23:44.381Z,9.60
2022-11-28T09:26:13.549Z,9.38
2022-11-28T09:28:40.095Z,10.43
2022-11-28T09:31:07.985Z,10.00
2022-11-28T09:33:35.929Z,9.68
2022-11-28T09:36:20.110Z,10.20
2022-11-28T09:38:47.264Z,10.07
2022-11-28T09:41:36.568Z,10.38
2022-11-28T09:44:12.305Z,10.32
2022-11-28T09:46:44.112Z,10.02
2022-11-28T09:49:29.574Z,10.48
2022-11-28T09:52:16.342Z,9.77
2022-11-28T09:54:55.764Z,9.65
2022-11-28T09:57:33.604Z,9.82
2022-11-28T10:00:00.967Z,10.77
2022-11-28T10:02:45.536Z,10.48
2022-11-28T10:05:18.844Z,10.48
2022-11-28T10:08:03.190Z,10.18
2022-11-28T10:10:32.761Z,9.18
2022-11-28T10:13:02.203Z,8.50
2022-11-28T10:15:40.006Z,9.93
2022-11-28T10:18:19.459Z,9.52
2022-11-28T10:20:52.357Z,9.02
2022-11-28T10:23:40.631Z,9.57
2022-11-28T10:26:13.013Z,9.07
2022-11-28T10:28:43.951Z,9.35
2022-11-28T10:31:19.259Z,9.80
2022-11-28T10:33:53.781Z,9.98
2022-11-28T10:36:33.162Z,10.68
2022-11-28T10:39:11.414Z,9.13
2022-11-28T10:42:14.347Z,10.90
2022-11-28T10:44:55.876Z,11.18
2022-11-28T10:47:25.305Z,11.95
2022-11-28T10:50:18.311Z,11.65
2022-11-28T10:52:53.383Z,10.70
2022-11-28T10:55:48.058Z,12.23
2022-11-28T10:58:23.088Z,12.05
2022-11-28T11:00:56.896Z,12.55
2022-11-28T11:03:37.360Z,12.90
2022-11-28T11:06:04.406Z,14.10
2022-11-28T11:08:39.115Z,14.65
2022-11-28T11:11:18.774Z,14.57
2022-11-28T11:14:10.062Z,15.13
2022-11-28T11:16:55.514Z,15.75
2022-11-28T11:19:37.424Z,16.15
2022-11-28T11:22:12.903Z,15.95
2022-11-28T11:24:39.721Z,17.40
2022-11-28T11:27:21.436Z,16.73
2022-11-28T11:29:51.500Z,17.30
2022-11-28T11:32:29.700Z,16.58
2022-11-28T11:34:59.779Z,17.17
2022-11-28T11:37:28.972Z,18.15
2022-11-28T11:39:55.680Z,19.30
2022-11-28T11:42:25.578Z,17.63
2022-11-28T11:44:52.950Z,19.08
2022-11-28T11:47:19.597Z,18.92
2022-11-28T11:49:50.355Z,18.73
2022-11-28T11:52:23.908Z,19.42
2022-11-28T11:54:56.401Z,18.17
2022-11-28T11:57:46.141Z,20.15
2022-11-28T12:00:22.495Z,19.23
2022-11-28T12:02:54.335Z,18.80
2022-11-28T12:05:46.354Z,21.13
2022-11-28T12:08:31.765Z,20.63
2022-11-28T12:11:13.181Z,20.73
2022-11-28T12:13:39.864Z,22.00
2022-11-28T12:16:12.710Z,21.08
2022-11-28T12:18:56.708Z,22.23
2022-11-28T12:21:44.301Z,22.75
2022-11-28T12:24:14.065Z,22.25
2022-11-28T12:27:02.342Z,22.65
2022-11-28T12:29:34.681Z,22.27
2022-11-28T12:32:28.929Z,23.60
2022-11-28T12:35:22.478Z,23.40
2022-11-28T12:38:10.381Z,23.25
2022-11-28T12:40:56.438Z,23.65
2022-11-28T12:44:07.922Z,23.55
2022-11-28T12:46:53.487Z,25.27
2022-11-28T12:49:34.187Z,24.00
2022-11-28T12:52:15.036Z,25.17
2022-11-28T12:54:47.488Z,25.33
2022-11-28T12:57:26.503Z,24.38
2022-11-28T13:00:08.091Z,24.52
2022-11-28T13:02:42.602Z,24.63
2022-11-28T13:05:21.674Z,26.17
2022-11-28T13:08:09.639Z,25.38
2022-11-28T13:10:59.675Z,26.13
2022-11-28T13:13:39.876Z,26.58
2022-11-28T13:16:59.771Z,26.33
2022-11-28T13:19:38.264Z,26.20
2022-11-28T13:22:15.749Z,25.75
2022-11-28T13:25:24.763Z,26.30
2022-11-28T13:28:18.653Z,27.25
2022-11-28T13:30:55.492Z,25.20
2022-11-28T13:33:31.369Z,26.40
2022-11-28T13:36:00.686Z,27.08
2022-11-28T13:38:57.422Z,26.67
2022-11-28T13:42:13.907Z,27.25
2022-11-28T13:45:07.389Z,27.90
2022-11-28T13:47:36.861Z,26.10
2022-11-28T13:50:25.315Z,25.48
2022-11-28T13:53:19.068Z,26.17
2022-11-28T13:55:48.640Z,25.70
2022-11-28T13:58:17.640Z,27.75
2022-11-28T14:01:01.261Z,29.48
2022-11-28T14:03:28.970Z,26.85
2022-11-28T14:05:59.200Z,27.63
2022-11-28T14:08:39.300Z,26.75
2022-11-28T14:11:41.041Z,26.73
2022-11-28T14:14:25.640Z,26.25
2022-11-28T14:17:26.348Z,26.77
2022-11-28T14:20:17.813Z,25.92
2022-11-28T14:22:59.558Z,26.83
2022-11-28T14:25:33.649Z,26.33
2022-11-28T14:28:06.877Z,26.58
2022-11-28T14:30:37.104Z,27.92
2022-11-28T14:33:20.550Z,27.58
2022-11-28T14:35:50.054Z,26.20
2022-11-28T14:38:31.877Z,26.73
2022-11-28T14:41:05.593Z,26.83
2022-11-28T14:43:47.379Z,27.92
2022-11-28T14:46:26.185Z,27.63
2022-11-28T14:48:59.818Z,26.70
2022-11-28T14:51:45.227Z,27.20
2022-11-28T14:54:25.595Z,27.45
2022-11-28T14:56:58.186Z,26.27
2022-11-28T14:59:34.313Z,27.13
2022-11-28T15:02:13.038Z,27.20
2022-11-28T15:05:03.459Z,26.75
2022-11-28T15:07:54.435Z,27.35
2022-11-28T15:10:29.033Z,25.70
2022-11-28T15:12:58.753Z,27.55
2022-11-28T15:15:25.463Z,27.73
2022-11-28T15:17:54.725Z,25.92
2022-11-28T15:20:38.932Z,26.67
2022-11-28T15:23:05.588Z,27.00
2022-11-28T15:25:53.000Z,27.60
2022-11-28T15:28:25.435Z,27.35
2022-11-28T15:30:53.426Z,26.42
2022-11-28T15:33:23.219Z,26.70
2022-11-28T15:36:13.040Z,25.77
2022-11-28T15:38:42.710Z,25.88
2022-11-28T15:41:10.759Z,25.83
2022-11-28T15:43:43.505Z,26.08
2022-11-28T15:46:32.795Z,25.30
2022-11-28T15:49:08.878Z,26.65
2022-11-28T15:51:35.760Z,25.75
2022-11-28T15:54:04.345Z,25.58
2022-11-28T15:56:31.148Z,26.05
2022-11-28T15:58:57.730Z,25.35
2022-11-28T16:01:27.118Z,25.10
2022-11-28T16:03:59.826Z,27.95
2022-11-28T16:06:30.243Z,25.98
2022-11-28T16:09:00.170Z,26.25
2022-11-28T16:11:30.702Z,25.85
2022-11-28T16:14:06.423Z,25.60
2022-11-28T16:16:36.015Z,24.70
2022-11-28T16:19:06.744Z,25.45
2022-11-28T16:21:45.279Z,26.67
2022-11-28T16:24:26.031Z,26.77
2022-11-28T16:26:59.926Z,26.85
2022-11-28T16:29:34.517Z,26.85
2022-11-28T16:32:39.322Z,27.23
2022-11-28T16:35:12.333Z,26.58
2022-11-28T16:37:39.371Z,26.33
2022-11-28T16:40:20.597Z,27.10
2022-11-28T16:42:54.407Z,26.77
2022-11-28T16:45:27.767Z,29.38
2022-11-28T16:48:19.260Z,27.90
2022-11-28T16:51:10.691Z,26.45
2022-11-28T16:53:50.090Z,26.85
2022-11-28T16:56:27.224Z,26.00
2022-11-28T16:59:17.491Z,25.63
2022-11-28T17:01:47.560Z,25.15
2022-11-28T17:04:22.921Z,26.63
2022-11-28T17:06:56.250Z,24.45
2022-11-28T17:09:22.850Z,26.08
2022-11-28T17:11:59.509Z,24.23
2022-11-28T17:14:26.103Z,25.05
2022-11-28T17:16:52.712Z,26.33
2022-11-28T17:19:24.554Z,25.15
2022-11-28T17:21:57.830Z,26.77
2022-11-28T17:24:27.453Z,25.92
2022-11-28T17:26:57.371Z,24.95
2022-11-28T17:29:25.371Z,25.35
2022-11-28T17:31:55.425Z,25.08
2022-11-28T17:34:25.288Z,24.67
2022-11-28T17:36:52.720Z,26.05
2022-11-28T17:39:20.538Z,23.98
2022-11-28T17:41:47.668Z,24.55
2022-11-28T17:44:19.204Z,23.73
2022-11-28T17:46:46.583Z,25.27
2022-11-28T17:49:15.504Z,24.60
2022-11-28T17:51:42.228Z,23.25
2022-11-28T17:54:12.199Z,23.00
2022-11-28T17:56:38.769Z,23.48
2022-11-28T17:59:05.354Z,22.48
2022-11-28T18:01:34.146Z,23.33
2022-11-28T18:04:00.771Z,21.40
2022-11-28T18:06:27.301Z,19.65
2022-11-28T18:08:53.910Z,19.52
2022-11-28T18:11:22.954Z,19.63
2022-11-28T18:13:49.513Z,18.70
2022-11-28T18:16:19.537Z,17.42
2022-11-28T18:18:49.413Z,19.88
2022-11-28T18:21:19.191Z,18.85
2022-11-28T18:23:51.758Z,18.13
2022-11-28T18:26:21.313Z,18.67
2022-11-28T18:28:47.812Z,18.27
2022-11-28T18:31:20.275Z,18.17
2022-11-28T18:33:47.288Z,17.92
2022-11-28T18:36:25.163Z,18.42
2022-11-28T18:38:55.908Z,18.48
2022-11-28T18:41:23.000Z,18.70
2022-11-28T18:43:49.633Z,20.70
2022-11-28T18:46:19.197Z,18.13
2022-11-28T18:48:47.592Z,17.67
2022-11-28T18:51:22.254Z,21.63
2022-11-28T18:53:50.412Z,18.55
2022-11-28T18:56:19.772Z,17.90
2022-11-28T18:58:48.734Z,18.48
2022-11-28T19:01:16.402Z,17.60
2022-11-28T19:03:49.802Z,17.30
2022-11-28T19:06:16.383Z,18.50
2022-11-28T19:08:42.912Z,18.48
2022-11-28T19:11:14.282Z,18.60
2022-11-28T19:13:45.688Z,18.10
2022-11-28T19:16:15.262Z,18.27
2022-11-28T19:18:42.889Z,18.95
2022-11-28T19:21:14.112Z,19.13
2022-11-28T19:23:40.771Z,19.73
2022-11-28T19:26:10.405Z,18.27
2022-11-28T19:28:38.300Z,19.25
2022-11-28T19:31:05.922Z,19.20
2022-11-28T19:33:33.029Z,20.20
2022-11-28T19:36:03.600Z,18.45
2022-11-28T19:38:30.310Z,18.35
2022-11-28T19:40:57.346Z,19.58
2022-11-28T19:43:24.193Z,20.20
2022-11-28T19:45:57.681Z,20.65
2022-11-28T19:48:24.499Z,19.90
2022-11-28T19:50:52.050Z,20.00
2022-11-28T19:53:21.649Z,19.75
2022-11-28T19:55:49.249Z,20.30
2022-11-28T19:58:16.737Z,19.50
2022-11-28T20:00:43.836Z,20.65
2022-11-28T20:03:11.104Z,18.20
2022-11-28T20:05:40.303Z,17.77
2022-11-28T20:08:07.401Z,18.75
2022-11-28T20:10:40.548Z,18.02
2022-11-28T20:13:09.464Z,19.05
2022-11-28T20:15:36.852Z,18.40
2022-11-28T20:18:03.527Z,18.38
2022-11-28T20:20:30.133Z,18.80
2022-11-28T20:22:57.610Z,17.98
2022-11-28T20:25:24.202Z,18.20
2022-11-28T20:27:50.850Z,17.75
2022-11-28T20:30:17.899Z,19.13
2022-11-28T20:32:44.622Z,19.65
2022-11-28T20:35:11.229Z,18.33
2022-11-28T20:37:39.292Z,18.92
2022-11-28T20:40:06.884Z,18.08
2022-11-28T20:42:39.644Z,17.75
2022-11-28T20:45:07.254Z,18.60
2022-11-28T20:47:35.183Z,18.55
2022-11-28T20:50:01.818Z,18.05
2022-11-28T20:52:28.380Z,19.10
2022-11-28T20:54:58.012Z,18.75
2022-11-28T20:57:24.651Z,18.77
2022-11-28T20:59:52.462Z,18.25
2022-11-28T21:02:19.066Z,19.23
2022-11-28T21:04:48.409Z,18.85
2022-11-28T21:07:15.032Z,19.33
2022-11-28T21:09:41.940Z,20.48
2022-11-28T21:12:11.059Z,20.90
2022-11-28T21:14:37.604Z,19.88
2022-11-28T21:17:04.261Z,18.45
2022-11-28T21:19:33.926Z,20.13
2022-11-28T21:22:00.957Z,19.48
2022-11-28T21:24:27.580Z,21.42
2022-11-28T21:26:54.935Z,19.33
2022-11-28T21:29:23.341Z,20.33
2022-11-28T21:31:50.131Z,18.55
2022-11-28T21:34:19.773Z,20.17
2022-11-28T21:36:47.103Z,19.67
2022-11-28T21:39:20.141Z,20.75
2022-11-28T21:41:47.322Z,20.52
2022-11-28T21:44:16.513Z,20.20
2022-11-28T21:46:45.351Z,19.52
2022-11-28T21:49:12.007Z,18.98
2022-11-28T21:51:38.693Z,20.60
2022-11-28T21:54:05.516Z,19.45
2022-11-28T21:56:32.029Z,20.70
2022-11-28T21:59:00.923Z,19.92
2022-11-28T22:01:27.553Z,20.40
2022-11-28T22:04:01.931Z,19.27
2022-11-28T22:06:29.496Z,20.58
2022-11-28T22:08:56.540Z,21.35
2022-11-28T22:11:24.194Z,21.13
2022-11-28T22:13:51.680Z,23.25
2022-11-28T22:16:22.556Z,21.88
2022-11-28T22:18:50.755Z,22.55
2022-11-28T22:24:04.466Z,22.45
2022-11-28T22:26:33.695Z,21.20
2022-11-28T22:29:01.060Z,22.60
2022-11-28T22:31:28.168Z,22.40
2022-11-28T22:33:54.984Z,20.70
2022-11-28T22:36:21.885Z,21.08
2022-11-28T22:38:49.812Z,21.92
2022-11-28T22:41:24.653Z,20.48
2022-11-28T22:43:55.889Z,22.20
2022-11-28T22:46:23.045Z,23.08
2022-11-28T22:48:50.559Z,24.00
2022-11-28T22:51:19.983Z,22.38
2022-11-28T22:53:46.565Z,21.98
2022-11-28T22:56:16.537Z,21.17
2022-11-28T22:58:48.774Z,20.25
2022-11-28T23:01:26.975Z,22.17
2022-11-28T23:03:55.002Z,20.90
2022-11-28T23:06:27.443Z,21.10
2022-11-28T23:08:55.691Z,21.60
2022-11-28T23:11:24.590Z,20.88
2022-11-28T23:13:52.333Z,21.25
2022-11-28T23:16:46.165Z,22.70
2022-11-28T23:19:20.020Z,21.45
2022-11-28T23:21:49.292Z,21.95
2022-11-28T23:24:22.036Z,20.15
2022-11-28T23:26:50.328Z,19.75
2022-11-28T23:29:17.676Z,20.15
2022-11-28T23:31:45.665Z,18.77
2022-11-28T23:34:12.993Z,18.10
2022-11-28T23:36:44.444Z,20.05
2022-11-28T23:39:24.594Z,19.73
2022-11-28T23:41:51.369Z,18.70
2022-11-28T23:44:19.667Z,17.63
2022-11-28T23:46:48.185Z,18.70
2022-11-28T23:49:14.738Z,17.88
2022-11-28T23:51:41.803Z,17.05
2022-11-28T23:54:09.878Z,17.50
2022-11-28T23:56:38.029Z,16.95
2022-11-28T23:59:07.158Z,17.02
